• Join FlightAware (Why Join?)
  • Login
  • US Flag 
06:47AM EDT


 

Airport Tracker/Info


-or-


 

Live Flight TrackerFlight Track Log ✈ AFL150 ✈ 18-Aug-2013 ✈ UUEE / SVO - MUHA / HAV

Flight Track Log - Related Links

Times and Time Zones

All times are in EDT time to prevent confusion due to time zone crossing. See the AFL150 flight status page for this flight to view local times or setup timezone preferences in your user account.

Time Position Orientation Groundspeed Altitude Reporting Facility
EDT Latitude Longitude Course Direction KTS MPH feet Rate Location/Type
06:21AM 55.9800 37.4710 74° East 178 205 1,600  Level FlightAware
06:22AM 55.9840 37.4990 76° East 176 203 2,400 1,620 Climbing FlightAware
06:22AM 55.9890 37.5290 73° East 198 228 2,700 780 Climbing FlightAware
06:22AM 55.9920 37.5460 72° East 212 244 2,800 600 Climbing FlightAware
06:22AM 55.9990 37.5590 46° Northeast 226 260 2,900 900 Climbing FlightAware
06:23AM 56.0080 37.5690 32° Northeast 235 270 3,100 960 Climbing FlightAware
06:23AM 56.0240 37.5770 16° North 257 296 3,300 1,500 Climbing FlightAware
06:23AM 56.0520 37.5560 337° Northwest 276 318 4,100 2,220 Climbing FlightAware
06:23AM 56.0590 37.5370 303° West 275 316 4,600 2,880 Climbing FlightAware
06:24AM 56.0640 37.5060 286° West 275 316 5,300 2,820 Climbing FlightAware
06:24AM 56.0760 37.4500 291° West 276 318 6,500 2,760 Climbing FlightAware
06:24AM 56.0840 37.4080 289° West 278 320 7,400 2,400 Climbing FlightAware
06:25AM 56.0890 37.3860 292° West 283 326 7,700 2,400 Climbing FlightAware
06:25AM 56.1000 37.3320 290° West 286 329 8,800 2,520 Climbing FlightAware
06:25AM 56.1090 37.2850 289° West 292 336 9,600 1,740 Climbing FlightAware
06:26AM 56.1240 37.2010 288° West 320 368 10,400 1,260 Climbing FlightAware
06:27AM 56.1410 37.1080 288° West 352 405 11,100 1,440 Climbing FlightAware
06:27AM 56.1600 37.0090 289° West 369 425 12,100 2,040 Climbing FlightAware
06:28AM 56.1780 36.9060 287° West 375 432 13,500 2,280 Climbing FlightAware
06:28AM 56.1970 36.8010 288° West 381 438 14,800 2,220 Climbing FlightAware
06:29AM 56.2160 36.6950 288° West 385 443 16,100 2,040 Climbing FlightAware
06:29AM 56.2350 36.5900 288° West 395 455 17,200 1,920 Climbing FlightAware
06:30AM 56.2560 36.4760 288° West 401 461 18,400 2,040 Climbing FlightAware
06:31AM 56.2750 36.3660 287° West 403 464 19,600 1,860 Climbing FlightAware
06:31AM 56.2950 36.2550 288° West 408 470 20,600 1,680 Climbing FlightAware
06:32AM 56.3150 36.1400 287° West 415 478 21,600 1,680 Climbing FlightAware
06:32AM 56.3350 36.0220 287° West 421 484 22,600 1,440 Climbing FlightAware
06:33AM 56.3560 35.9040 288° West 427 491 23,300 1,320 Climbing FlightAware
06:34AM 56.3760 35.7840 287° West 430 495 24,200 1,440 Climbing FlightAware
06:34AM 56.3970 35.6640 288° West 435 501 25,000 1,320 Climbing FlightAware
06:35AM 56.4170 35.5420 287° West 438 504 25,800 1,260 Climbing FlightAware
06:35AM 56.4390 35.4200 288° West 443 510 26,500 1,260 Climbing FlightAware
06:36AM 56.4710 35.3030 296° West 446 513 27,300 1,200 Climbing FlightAware
06:36AM 56.5130 35.1980 306° West 451 519 27,900 1,020 Climbing FlightAware
06:37AM 56.5660 35.1050 316° Northwest 457 526 28,500 1,020 Climbing FlightAware
06:38AM 56.6250 35.0260 324° Northwest 461 531 29,100 900 Climbing FlightAware
06:38AM 56.6850 34.9460 324° Northwest 464 534 29,600 840 Climbing FlightAware
06:39AM 56.7460 34.8640 324° Northwest 469 540 30,100 1,020 Climbing FlightAware
06:39AM 56.8070 34.7830 324° Northwest 467 537 30,800 1,380 Climbing FlightAware
06:40AM 56.8840 34.6790 324° Northwest 456 525 32,000 1,380 Climbing FlightAware
06:41AM 56.9340 34.6110 323° Northwest 454 522 32,600 1,080 Climbing FlightAware
06:41AM 57.0030 34.5180 324° Northwest 453 521 33,300 1,020 Climbing FlightAware
06:42AM 57.0520 34.4500 323° Northwest 452 520 33,800 600 Climbing FlightAware
06:42AM 57.1110 34.3700 324° Northwest 456 525 34,000 120 Climbing FlightAware
06:43AM 57.1700 34.2890 323° Northwest 458 527 34,000  Level FlightAware
06:44AM 57.2380 34.1950 323° Northwest 457 526 34,000  Level FlightAware
06:44AM 57.2970 34.1130 323° Northwest 457 526 34,000  Level FlightAware
06:45AM 57.3470 34.0440 323° Northwest 457 526 34,000  Level FlightAware
06:45AM 57.4130 33.9510 323° Northwest 457 526 34,000  Level FlightAware
06:46AM 57.4630 33.8810 323° Northwest 458 527 34,000  Level FlightAware
06:46AM 57.5240 33.7950 323° Northwest 459 528 34,000  Level FlightAware
06:47AM 57.5810 33.7140 323° Northwest 461 531 34,000  Level FlightAware
06:48AM 57.6500 33.6170 323° Northwest 461 531 34,000  Level FlightAware
06:48AM 57.7070 33.5350 322° Northwest 462 532 34,000  Level FlightAware
06:49AM 57.7700 33.4490 324° Northwest 462 532 34,000  Level FlightAware
06:49AM 57.8310 33.3710 326° Northwest 463 533 34,000  Level FlightAware
06:50AM 57.8860 33.3020 326° Northwest 462 532 34,000  Level FlightAware
06:51AM 57.9460 33.2250 326° Northwest 461 531 34,000  Level FlightAware
06:51AM 58.0070 33.1460 326° Northwest 461 531 34,000  Level FlightAware
06:52AM 58.0780 33.0530 325° Northwest 462 532 34,000  Level FlightAware
06:52AM 58.1330 32.9810 325° Northwest 462 532 34,000  Level FlightAware
06:53AM 58.1860 32.9100 325° Northwest 462 532 34,000  Level FlightAware
06:54AM 58.2400 32.8390 325° Northwest 462 532 34,000  Level FlightAware
06:54AM 58.2930 32.7680 325° Northwest 462 532 34,000  Level FlightAware
06:55AM 58.3470 32.6960 325° Northwest 462 532 34,000  Level FlightAware
06:55AM 58.4000 32.6250 325° Northwest 462 532 34,000  Level FlightAware
06:56AM 58.4550 32.5510 325° Northwest 462 532 34,000  Level FlightAware
06:57AM 58.5090 32.4790 325° Northwest 462 532 34,000  Level FlightAware
06:57AM 58.6710 32.2630 325° Northwest 461 531 34,000  Level FlightAware
06:58AM 58.7300 32.1830 325° Northwest 462 532 34,000  Level FlightAware
06:59AM 58.7910 32.0990 325° Northwest 461 531 34,000  Level FlightAware
06:59AM 58.8460 32.0250 325° Northwest 461 531 34,000  Level FlightAware
07:00AM 58.9140 31.9300 324° Northwest 460 529 34,000  Level FlightAware
07:00AM 58.9670 31.8570 325° Northwest 459 528 34,000  Level FlightAware
07:01AM 59.0090 31.7980 324° Northwest 458 527 34,000  Level FlightAware
07:01AM 59.0850 31.6930 325° Northwest 696 801 34,000  Level FlightAware
07:02AM 59.1530 31.5950 324° Northwest 458 527 34,000  Level FlightAware
07:03AM 59.2110 31.5030 321° Northwest 457 526 34,000  Level FlightAware
07:03AM 59.2670 31.4140 321° Northwest 458 527 34,000  Level FlightAware
07:04AM 59.3250 31.3230 321° Northwest 459 528 34,000  Level FlightAware
07:04AM 59.3820 31.2330 321° Northwest 458 527 34,000  Level FlightAware
07:05AM 59.4480 31.1300 322° Northwest 459 528 34,000  Level FlightAware
07:06AM 59.4980 31.0490 321° Northwest 459 528 34,000  Level FlightAware
07:06AM 59.5440 30.9650 317° Northwest 454 522 34,000  Level FlightAware
07:07AM 59.5750 30.8360 295° West 446 513 34,000  Level FlightAware
07:07AM 59.5800 30.6970 274° West 444 511 34,000  Level FlightAware
07:08AM 59.5820 30.5530 272° West 443 510 34,000  Level FlightAware
07:08AM 59.5860 30.4140 273° West 444 511 34,000  Level FlightAware
07:09AM 59.5890 30.2710 272° West 443 510 34,000  Level FlightAware
07:10AM 59.5920 30.1320 273° West 445 512 34,000  Level FlightAware
07:10AM 59.5950 29.9880 272° West 447 514 34,000  Level FlightAware
07:11AM 59.5980 29.8660 273° West 448 516 34,000  Level FlightAware
07:11AM 59.6000 29.7040 271° West 449 517 34,000  Level FlightAware
07:12AM 59.6030 29.5600 272° West 450 518 34,000 240 Level FlightAware
07:13AM 59.6050 29.4170 272° West 453 521 34,300 840 Climbing FlightAware
07:13AM 59.6070 29.2730 272° West 448 516 35,000 1,080 Climbing FlightAware
07:14AM 59.6090 29.1300 272° West 446 513 35,600 840 Climbing FlightAware
07:14AM 59.6110 28.9800 272° West 447 514 36,000 300 Climbing FlightAware
07:15AM 59.6130 28.8530 272° West 449 517 36,000  Level FlightAware
07:15AM 59.6250 28.6950 279° West 448 516 36,000  Level FlightAware
07:16AM 59.6440 28.5590 286° West 448 516 36,000  Level FlightAware
07:17AM 59.6630 28.4300 286° West 448 516 36,000  Level FlightAware
07:17AM 59.6810 28.3030 286° West 448 516 36,000  Level FlightAware
07:18AM 59.7010 28.1630 286° West 446 513 36,000  Level FlightAware
07:18AM 59.7200 28.0330 286° West 446 513 36,000  Level FlightAware
07:19AM 59.7420 27.8780 286° West 447 514 36,000  Level FlightAware
07:19AM 59.7590 27.7520 285° West 446 513 36,000  Level FlightAware
07:20AM 59.7800 27.6030 286° West 447 514 36,000  Level FlightAware
07:21AM 59.8000 27.4570 285° West 447 514 36,000  Level FlightAware
07:21AM 59.8200 27.3050 285° West 448 516 36,000  Level FlightAware
07:22AM 59.8420 27.1470 286° West 447 514 36,000  Level FlightAware
07:23AM 59.8590 27.0200 285° West 445 512 36,000  Level FlightAware
07:23AM 59.8780 26.8730 285° West 445 512 36,000  Level FlightAware
07:24AM 59.8940 26.7470 284° West 445 512 36,000  Level FlightAware
07:24AM 59.9120 26.6090 285° West 444 511 36,000  Level FlightAware
07:25AM 59.9310 26.4630 285° West 445 512 36,000  Level FlightAware
07:25AM 59.9520 26.3370 288° West 446 513 36,000  Level FlightAware
07:26AM 59.9840 26.1990 295° West 448 516 36,000  Level FlightAware
07:27AM 60.0210 26.0770 301° West 450 518 36,000  Level FlightAware
07:27AM 60.0590 25.9540 302° West 449 517 36,000  Level FlightAware
07:28AM 60.0990 25.8240 302° West 450 518 36,000  Level FlightAware
07:28AM 60.1370 25.6970 301° West 450 518 36,000  Level FlightAware
07:29AM 60.1800 25.5550 301° West 450 518 36,000  Level FlightAware
07:30AM 60.2180 25.4290 301° West 451 519 36,000  Level FlightAware
07:30AM 60.2540 25.3060 301° West 451 519 36,000  Level FlightAware
07:31AM 60.2940 25.1710 301° West 451 519 36,000  Level FlightAware
07:31AM 60.3280 25.0540 300° West 451 519 36,000  Level FlightAware
07:32AM 60.3650 24.9280 301° West 451 519 36,000  Level FlightAware
07:33AM 60.4050 24.7910 301° West 450 518 36,000  Level FlightAware
07:33AM 60.4390 24.6720 300° West 450 518 36,000  Level FlightAware
07:34AM 60.4770 24.5420 301° West 452 520 36,000  Level FlightAware
07:34AM 60.5160 24.4050 300° West 452 520 36,000  Level FlightAware
07:35AM 60.5500 24.2860 300° West 451 519 36,000  Level FlightAware
07:35AM 60.5860 24.1590 300° West 450 518 36,000  Level FlightAware
07:36AM 60.6220 24.0280 299° West 450 518 36,000  Level FlightAware
07:37AM 60.6600 23.8950 300° West 449 517 36,000  Level FlightAware
07:37AM 60.6910 23.7820 299° West 449 517 36,000  Level FlightAware
07:38AM 60.7270 23.6510 299° West 450 518 36,000  Level FlightAware
07:38AM 60.7510 23.5660 300° West 451 519 36,000  Level FlightAware
07:39AM 60.8020 23.3800 299° West 452 520 36,000  Level FlightAware
07:40AM 60.8310 23.2730 299° West 452 520 36,000  Level FlightAware
07:40AM 60.8720 23.1210 299° West 451 519 36,000  Level FlightAware
07:41AM 60.9080 22.9870 299° West 451 519 36,000  Level FlightAware
07:41AM 60.9360 22.8810 299° West 451 519 36,000  Level FlightAware
07:42AM 60.9770 22.7290 299° West 449 517 36,000  Level FlightAware
07:42AM 61.0070 22.6140 298° West 447 514 36,000  Level FlightAware
07:43AM 61.0420 22.4910 300° West 451 519 36,000  Level FlightAware
07:44AM 61.0990 22.3750 316° Northwest 457 526 36,000  Level FlightAware
07:44AM 61.1570 22.2580 316° Northwest 458 527 36,000  Level FlightAware
07:45AM 61.2060 22.1600 316° Northwest 458 527 36,000  Level FlightAware
07:45AM 61.2520 22.0650 315° West 458 527 36,000  Level FlightAware
07:46AM 61.3090 21.9460 315° West 459 528 36,000  Level FlightAware
07:47AM 61.3640 21.8310 315° West 459 528 36,000  Level FlightAware
07:47AM 61.4120 21.7300 315° West 460 529 36,000  Level FlightAware
07:48AM 61.4670 21.6150 315° West 461 531 36,000  Level FlightAware
07:48AM 61.5190 21.5050 315° West 461 531 36,000  Level FlightAware
07:49AM 61.5710 21.3940 315° West 460 529 36,000  Level FlightAware
07:49AM 61.6230 21.2830 315° West 459 528 36,000  Level FlightAware
07:50AM 61.6740 21.1740 315° West 458 527 36,000  Level FlightAware
07:51AM 61.7260 21.0610 314° West 459 528 36,000  Level FlightAware
07:51AM 61.7780 20.9480 314° West 460 529 36,000  Level FlightAware
07:52AM 61.8300 20.8360 315° West 460 529 36,000  Level FlightAware
07:52AM 61.8820 20.7210 314° West 461 531 36,000  Level FlightAware
07:53AM 61.9340 20.6070 314° West 461 531 36,000  Level FlightAware
07:54AM 61.9980 20.4660 314° West 462 532 36,000  Level FlightAware
07:54AM 62.0470 20.3550 313° West 463 533 36,000  Level FlightAware
07:55AM 62.1070 20.2220 314° West 464 534 36,000  Level FlightAware
07:56AM 62.1640 20.0930 313° West 465 535 36,000  Level FlightAware
07:56AM 62.2080 19.9940 314° West 465 535 36,000  Level FlightAware
07:57AM 62.2670 19.8590 313° West 459 528 36,000  Level FlightAware
07:57AM 62.3190 19.7400 313° West 459 528 36,000  Level FlightAware
07:58AM 62.3620 19.6410 313° West 458 527 36,000  Level FlightAware
07:58AM 62.4140 19.5220 313° West 457 526 36,000  Level FlightAware
07:59AM 62.4700 19.3900 313° West 456 525 36,000  Level FlightAware
08:00AM 62.5140 19.2880 313° West 456 525 36,000  Level FlightAware
08:00AM 62.5780 19.1360 312° West 454 522 36,000  Level FlightAware
08:01AM 62.6280 19.0180 313° West 459 528 36,000  Level FlightAware
08:01AM 62.6780 18.8980 312° West 458 527 36,000  Level FlightAware
08:02AM 62.7280 18.7790 313° West 456 525 36,000  Level FlightAware
08:03AM 62.7780 18.6600 313° West 455 524 36,000  Level FlightAware
08:03AM 62.8280 18.5380 312° West 455 524 36,000  Level FlightAware
08:04AM 62.8740 18.4250 312° West 456 525 36,000  Level FlightAware
08:04AM 62.9260 18.2980 312° West 455 524 36,000  Level FlightAware
08:05AM 62.9740 18.1800 312° West 448 516 36,000  Level FlightAware
08:06AM 63.0210 18.0640 312° West 448 516 36,000  Level FlightAware
08:06AM 63.0730 17.9350 312° West 448 516 36,000  Level FlightAware
08:07AM 63.1200 17.8190 312° West 449 517 36,000  Level FlightAware
08:07AM 63.1700 17.6910 311° West 451 519 36,000  Level FlightAware
08:08AM 63.2180 17.5700 311° West 452 520 36,000  Level FlightAware
08:08AM 63.2670 17.4460 311° West 453 521 36,000  Level FlightAware
08:09AM 63.3150 17.3230 311° West 454 522 36,000  Level FlightAware
08:10AM 63.3630 17.2000 311° West 455 524 36,000  Level FlightAware
08:10AM 63.4140 17.0680 311° West 456 525 36,000  Level FlightAware
08:11AM 63.4630 16.9420 311° West 457 526 36,000  Level FlightAware
08:11AM 63.5050 16.8320 311° West 458 527 36,000  Level FlightAware
08:12AM 63.5600 16.6880 311° West 456 525 36,000  Level FlightAware
08:13AM 63.6080 16.5580 310° West 454 522 36,000  Level FlightAware
08:13AM 63.6630 16.4130 311° West 454 522 36,000  Level FlightAware
08:14AM 63.7100 16.2880 310° West 457 526 36,000  Level FlightAware
08:14AM 63.7580 16.1580 310° West 455 524 36,000  Level FlightAware
08:15AM 63.7980 16.0490 310° West 455 524 36,000  Level FlightAware
08:16AM 63.8520 15.9030 310° West 453 521 36,000  Level FlightAware
08:16AM 63.8980 15.7760 309° West 453 521 36,000  Level FlightAware
08:17AM 63.9450 15.6480 310° West 455 524 36,000  Level FlightAware
08:17AM 63.9910 15.5190 309° West 456 525 36,000  Level FlightAware
08:18AM 64.0380 15.3870 309° West 457 526 36,000  Level FlightAware
08:19AM 64.0850 15.2550 309° West 459 528 36,000  Level FlightAware
08:19AM 64.1320 15.1240 309° West 460 529 36,000  Level FlightAware
08:20AM 64.1790 14.9910 309° West 460 529 36,000  Level FlightAware
08:20AM 64.2230 14.8640 309° West 460 529 36,000  Level FlightAware
08:21AM 64.2660 14.7420 309° West 460 529 36,000  Level FlightAware
08:22AM 64.3310 14.5520 308° West 454 522 36,000  Level FlightAware
08:22AM 64.3690 14.4430 309° West 454 522 36,000  Level FlightAware
08:23AM 64.4150 14.3090 309° West 454 522 36,000  Level FlightAware
08:23AM 64.4610 14.1730 308° West 456 525 36,000 60 Level FlightAware
08:24AM 64.5180 14.0050 308° West 451 519 36,100  Climbing FlightAware
08:25AM 64.5620 13.8720 308° West 454 522 36,000 -120 Descending FlightAware
08:25AM 64.6110 13.7250 308° West 457 526 36,000  Level FlightAware
08:26AM 64.6620 13.5700 308° West 459 528 36,000  Level FlightAware
08:26AM 64.7090 13.4270 308° West 459 528 36,000  Level FlightAware
08:27AM 64.7540 13.2890 307° West 459 528 36,000  Level FlightAware
08:28AM 64.7990 13.1520 308° West 459 528 36,000  Level FlightAware
08:28AM 64.8550 12.9770 307° West 462 532 36,000  Level FlightAware
08:29AM 64.9060 12.8180 307° West 463 533 36,000  Level FlightAware
08:30AM 64.9540 12.6660 307° West 466 536 36,000  Level FlightAware
08:30AM 64.9970 12.5310 307° West 467 537 36,000  Level FlightAware
08:31AM 65.0430 12.3830 306° West 469 540 36,000  Level FlightAware
08:31AM 65.0900 12.2320 307° West 469 540 36,000  Level FlightAware
08:32AM 65.1360 12.0850 307° West 468 539 36,000  Level FlightAware
08:33AM 65.1790 11.9440 306° West 470 541 36,000  Level FlightAware
08:33AM 65.2250 11.7920 306° West 469 540 36,000  Level FlightAware
08:34AM 65.2710 11.6420 306° West 471 542 36,000  Level FlightAware
08:34AM 65.3170 11.4900 306° West 470 541 36,000  Level FlightAware
08:35AM 65.3570 11.3570 306° West 470 541 36,000  Level FlightAware
08:35AM 65.4020 11.2050 305° West 470 541 36,000  Level FlightAware
08:36AM 65.4470 11.0520 305° West 471 542 36,000  Level FlightAware
08:37AM 65.4870 10.9150 305° West 473 544 36,000  Level FlightAware
08:37AM 65.5360 10.7490 306° West 478 550 36,000  Level FlightAware
08:38AM 65.5800 10.5960 305° West 479 551 36,000  Level FlightAware
08:38AM 65.6210 10.4550 305° West 478 550 36,000  Level FlightAware
08:39AM 65.6670 10.2940 305° West 482 555 36,000  Level FlightAware
08:40AM 65.7120 10.1330 304° West 481 554 36,000  Level FlightAware
08:40AM 65.7540 9.9840 305° West 484 557 36,000  Level FlightAware
08:41AM 65.8000 9.8220 305° West 483 556 36,000  Level FlightAware
08:41AM 65.8410 9.6710 304° West 482 555 36,000  Level FlightAware
08:42AM 65.8850 9.5130 304° West 482 555 36,000  Level FlightAware
08:43AM 65.9230 9.3750 304° West 482 555 36,000  Level FlightAware
08:43AM 65.9610 9.2360 304° West 482 555 36,000  Level FlightAware
08:44AM 66.0000 9.0930 304° West 482 555 36,000  Level FlightAware
08:44AM 66.0380 8.9540 304° West 482 555 36,000  Level FlightAware
08:45AM 66.0780 8.8110 305° West 482 555 36,000  Level FlightAware
08:46AM 66.1160 8.6710 304° West 482 555 36,000  Level FlightAware
08:46AM 66.1540 8.5310 304° West 482 555 36,000  Level FlightAware
08:47AM 66.1920 8.3910 304° West 482 555 36,000  Level FlightAware
08:47AM 66.2300 8.2510 304° West 482 555 36,000  Level FlightAware
08:48AM 66.2680 8.1100 304° West 482 555 36,000  Level FlightAware
08:49AM 66.3060 7.9700 304° West 482 555 36,000  Level FlightAware
08:49AM 66.3450 7.8290 305° West 482 555 36,000  Level FlightAware
08:50AM 66.3850 7.6800 304° West 482 555 36,000  Level FlightAware
08:50AM 66.4230 7.5380 304° West 482 555 36,000  Level FlightAware
08:51AM 66.4620 7.3930 304° West 482 555 36,000  Level FlightAware
08:54AM 66.5066 6.6966 279° West  Level Estimated
08:55AM 66.5237 6.4155 279° West  Level Estimated
08:56AM 66.5403 6.1340 279° West  Level Estimated
08:57AM 66.5564 5.8521 278° West  Level Estimated
08:58AM 66.5719 5.5699 278° West  Level Estimated
08:59AM 66.5870 5.2873 278° West  Level Estimated
09:00AM 66.6015 5.0044 278° West  Level Estimated
09:01AM 66.6156 4.7212 277° West  Level Estimated
09:02AM 66.6291 4.4376 277° West  Level Estimated
09:03AM 66.6421 4.1538 277° West  Level Estimated
09:04AM 66.6546 3.8696 276° West  Level Estimated
09:05AM 66.6666 3.5852 276° West  Level Estimated
09:06AM 66.6781 3.3005 276° West  Level Estimated
09:07AM 66.6891 3.0155 276° West  Level Estimated
09:08AM 66.6995 2.7303 275° West  Level Estimated
09:09AM 66.7095 2.4449 275° West  Level Estimated
09:10AM 66.7189 2.1592 275° West  Level Estimated
09:11AM 66.7278 1.8733 275° West  Level Estimated
09:12AM 66.7362 1.5873 274° West  Level Estimated
09:13AM 66.7440 1.3010 274° West  Level Estimated
09:14AM 66.7514 1.0145 274° West  Level Estimated
09:15AM 66.7582 0.7279 274° West  Level Estimated
09:16AM 66.7645 0.4412 273° West  Level Estimated
09:17AM 66.7703 0.1543 273° West  Level Estimated
09:18AM 66.7756 -0.1328 273° West  Level Estimated
09:19AM 66.7803 -0.4199 273° West  Level Estimated
09:20AM 66.7845 -0.7072 272° West  Level Estimated
09:21AM 66.7882 -0.9945 272° West  Level Estimated
09:22AM 66.7914 -1.2820 272° West  Level Estimated
09:23AM 66.7941 -1.5695 271° West  Level Estimated
09:24AM 66.7962 -1.8570 271° West  Level Estimated
09:25AM 66.7978 -2.1446 271° West  Level Estimated
09:26AM 66.7989 -2.4322 271° West  Level Estimated
09:27AM 66.7994 -2.7199 270° West  Level Estimated
09:28AM 66.7995 -3.0075 270° West  Level Estimated
09:29AM 66.7990 -3.2952 270° West  Level Estimated
09:30AM 66.7980 -3.5828 270° West  Level Estimated
09:31AM 66.7965 -3.8704 269° West  Level Estimated
09:32AM 66.7944 -4.1580 269° West  Level Estimated
09:33AM 66.7918 -4.4455 269° West  Level Estimated
09:34AM 66.7887 -4.7329 269° West  Level Estimated
09:35AM 66.7851 -5.0203 268° West  Level Estimated
09:36AM 66.7810 -5.3076 268° West  Level Estimated
09:37AM 66.7763 -5.5947 268° West  Level Estimated
09:38AM 66.7711 -5.8818 268° West  Level Estimated
09:39AM 66.7654 -6.1687 267° West  Level Estimated
09:40AM 66.7592 -6.4555 267° West  Level Estimated
09:41AM 66.7525 -6.7421 267° West  Level Estimated
09:42AM 66.7452 -7.0286 266° West  Level Estimated
09:43AM 66.7374 -7.3149 266° West  Level Estimated
09:44AM 66.7291 -7.6010 266° West  Level Estimated
09:45AM 66.7203 -7.8869 266° West  Level Estimated
09:46AM 66.7110 -8.1726 265° West  Level Estimated
09:47AM 66.7011 -8.4581 265° West  Level Estimated
09:48AM 66.6908 -8.7434 265° West  Level Estimated
09:49AM 66.6799 -9.0284 265° West  Level Estimated
09:50AM 66.6685 -9.3131 264° West  Level Estimated
09:51AM 66.6565 -9.5976 264° West  Level Estimated
09:52AM 66.6441 -9.8818 264° West  Level Estimated
09:53AM 66.6312 -10.1657 264° West  Level Estimated
09:54AM 66.6177 -10.4493 263° West  Level Estimated
09:55AM 66.6038 -10.7325 263° West  Level Estimated
09:56AM 66.5893 -11.0155 263° West  Level Estimated
09:57AM 66.5743 -11.2981 263° West  Level Estimated
09:58AM 66.5588 -11.5804 262° West  Level Estimated
09:59AM 66.5428 -11.8623 262° West  Level Estimated
10:00AM 66.5263 -12.1439 262° West  Level Estimated
10:01AM 66.5093 -12.4251 261° West  Level Estimated
10:02AM 66.4918 -12.7058 261° West  Level Estimated
10:03AM 66.4738 -12.9862 261° West  Level Estimated
10:04AM 66.4553 -13.2662 261° West  Level Estimated
10:05AM 66.4362 -13.5458 260° West  Level Estimated
10:06AM 66.4167 -13.8249 260° West  Level Estimated
10:07AM 66.3967 -14.1036 260° West  Level Estimated
10:08AM 66.3762 -14.3818 260° West  Level Estimated
10:09AM 66.3552 -14.6596 259° West  Level Estimated
10:10AM 66.3337 -14.9369 259° West  Level Estimated
10:11AM 66.3117 -15.2137 259° West  Level Estimated
10:12AM 66.2892 -15.4900 259° West  Level Estimated
10:13AM 66.2663 -15.7658 258° West  Level Estimated
10:14AM 66.2428 -16.0412 258° West  Level Estimated
10:15AM 66.2188 -16.3160 258° West  Level Estimated
10:16AM 66.1944 -16.5903 258° West  Level Estimated
10:17AM 66.1695 -16.8640 257° West  Level Estimated
10:18AM 66.1441 -17.1372 257° West  Level Estimated
10:19AM 66.1182 -17.4099 257° West  Level Estimated
10:20AM 66.0919 -17.6819 257° West  Level Estimated
10:21AM 66.0650 -17.9535 256° West  Level Estimated
10:22AM 66.0377 -18.2244 256° West  Level Estimated
10:23AM 66.0099 -18.4948 256° West  Level Estimated
10:24AM 65.9817 -18.7645 256° West  Level Estimated
10:25AM 65.9529 -19.0337 255° West  Level Estimated
10:26AM 65.9237 -19.3022 255° West  Level Estimated
10:27AM 65.8941 -19.5702 255° West  Level Estimated
10:28AM 65.8639 -19.8375 255° West  Level Estimated
10:29AM 65.8333 -20.1042 254° West  Level Estimated
10:30AM 65.8023 -20.3702 254° West  Level Estimated
10:31AM 65.7707 -20.6356 254° West  Level Estimated
10:32AM 65.7387 -20.9004 254° West  Level Estimated
10:33AM 65.7063 -21.1644 253° West  Level Estimated
10:34AM 65.6734 -21.4279 253° West  Level Estimated
10:35AM 65.6401 -21.6906 253° West  Level Estimated
10:36AM 65.6063 -21.9527 253° West  Level Estimated
10:37AM 65.5720 -22.2140 253° West  Level Estimated
10:38AM 65.5373 -22.4747 252° West  Level Estimated
10:39AM 65.5022 -22.7347 252° West  Level Estimated
10:40AM 65.4666 -22.9940 252° West  Level Estimated
10:41AM 65.4306 -23.2526 252° West  Level Estimated
10:42AM 65.3941 -23.5104 251° West  Level Estimated
10:43AM 65.3572 -23.7676 251° West  Level Estimated
10:44AM 65.3198 -24.0240 251° West  Level Estimated
10:45AM 65.2821 -24.2797 251° West  Level Estimated
10:46AM 65.2439 -24.5346 250° West  Level Estimated
10:47AM 65.2052 -24.7889 250° West  Level Estimated
10:48AM 65.1661 -25.0423 250° West  Level Estimated
10:49AM 65.1266 -25.2950 250° West  Level Estimated
10:50AM 65.0867 -25.5470 249° West  Level Estimated
10:51AM 65.0464 -25.7982 249° West  Level Estimated
10:52AM 65.0056 -26.0486 249° West  Level Estimated
10:53AM 64.9644 -26.2983 249° West  Level Estimated
10:54AM 64.9229 -26.5472 249° West  Level Estimated
10:55AM 64.8809 -26.7953 248° West  Level Estimated
10:56AM 64.8384 -27.0427 248° West  Level Estimated
10:57AM 64.7956 -27.2893 248° West  Level Estimated
10:58AM 64.7524 -27.5350 248° West  Level Estimated
10:59AM 64.7087 -27.7800 247° West  Level Estimated
11:00AM 64.6647 -28.0242 247° West  Level Estimated
11:01AM 64.6202 -28.2676 247° West  Level Estimated
11:02AM 64.5754 -28.5102 247° West  Level Estimated
11:03AM 64.5301 -28.7520 247° West  Level Estimated
11:04AM 64.4845 -28.9930 246° West  Level Estimated
11:05AM 64.4385 -29.2332 246° West  Level Estimated
11:06AM 64.3920 -29.4726 246° West  Level Estimated
11:07AM 64.3452 -29.7112 246° West  Level Estimated
11:08AM 64.2980 -29.9489 245° Southwest  Level Estimated
11:09AM 64.2505 -30.1859 245° Southwest  Level Estimated
11:10AM 64.2025 -30.4220 245° Southwest  Level Estimated
11:11AM 64.1542 -30.6573 245° Southwest  Level Estimated
11:12AM 64.1054 -30.8918 245° Southwest  Level Estimated
11:13AM 64.0563 -31.1255 244° Southwest  Level Estimated
11:14AM 64.0069 -31.3583 244° Southwest  Level Estimated
11:15AM 63.9570 -31.5903 244° Southwest  Level Estimated
11:16AM 63.9068 -31.8215 244° Southwest  Level Estimated
11:17AM 63.8562 -32.0518 244° Southwest  Level Estimated
11:18AM 63.8053 -32.2814 243° Southwest  Level Estimated
11:19AM 63.7540 -32.5101 243° Southwest  Level Estimated
11:20AM 63.7023 -32.7379 243° Southwest  Level Estimated
11:21AM 63.6503 -32.9650 243° Southwest  Level Estimated
11:22AM 63.5979 -33.1911 243° Southwest  Level Estimated
11:23AM 63.5452 -33.4165 242° Southwest  Level Estimated
11:24AM 63.4921 -33.6410 242° Southwest  Level Estimated
11:25AM 63.4386 -33.8647 242° Southwest  Level Estimated
11:26AM 63.3848 -34.0876 242° Southwest  Level Estimated
11:27AM 63.3307 -34.3096 242° Southwest  Level Estimated
11:28AM 63.2762 -34.5308 241° Southwest  Level Estimated
11:29AM 63.2214 -34.7511 241° Southwest  Level Estimated
11:30AM 63.1663 -34.9706 241° Southwest  Level Estimated
11:31AM 63.1108 -35.1893 241° Southwest  Level Estimated
11:32AM 63.0549 -35.4071 241° Southwest  Level Estimated
11:33AM 62.9988 -35.6241 240° Southwest  Level Estimated
11:34AM 62.9423 -35.8403 240° Southwest  Level Estimated
11:35AM 62.8855 -36.0556 240° Southwest  Level Estimated
11:36AM 62.8283 -36.2701 240° Southwest  Level Estimated
11:37AM 62.7709 -36.4838 240° Southwest  Level Estimated
11:38AM 62.7131 -36.6966 239° Southwest  Level Estimated
11:39AM 62.6549 -36.9086 239° Southwest  Level Estimated
11:40AM 62.5965 -37.1198 239° Southwest  Level Estimated
11:41AM 62.5377 -37.3301 239° Southwest  Level Estimated
11:42AM 62.4787 -37.5396 239° Southwest  Level Estimated
11:43AM 62.4193 -37.7483 238° Southwest  Level Estimated
11:44AM 62.3596 -37.9561 238° Southwest  Level Estimated
11:45AM 62.2996 -38.1631 238° Southwest  Level Estimated
11:46AM 62.2393 -38.3693 238° Southwest  Level Estimated
11:47AM 62.1787 -38.5747 238° Southwest  Level Estimated
11:48AM 62.1178 -38.7792 238° Southwest  Level Estimated
11:49AM 62.0565 -38.9829 237° Southwest  Level Estimated
11:50AM 61.9950 -39.1858 237° Southwest  Level Estimated
11:50AM 62.4430 -48.7750 237° Southwest 454 522 36,000  Level FlightAware
11:51AM 61.9332 -39.3879 237° Southwest  Level Estimated
11:51AM 62.3990 -48.9000 233° Southwest 456 525 36,000  Level FlightAware
11:52AM 62.3530 -49.0300 233° Southwest 458 527 36,000  Level FlightAware
11:52AM 62.3090 -49.1540 233° Southwest 458 527 36,000  Level FlightAware
11:53AM 62.2520 -49.3120 232° Southwest 458 527 36,000  Level FlightAware
11:54AM 62.1740 -49.5280 232° Southwest 457 526 36,000  Level FlightAware
11:55AM 62.1150 -49.6900 232° Southwest 458 527 36,000  Level FlightAware
11:55AM 62.0740 -49.8020 232° Southwest 458 527 36,000  Level FlightAware
11:56AM 62.0320 -49.9140 231° Southwest 458 527 36,000  Level FlightAware
11:57AM 61.9670 -50.1000 233° Southwest 453 521 36,000  Level FlightAware
11:57AM 61.9250 -50.2310 236° Southwest 449 517 36,000  Level FlightAware
11:58AM 61.8770 -50.3820 236° Southwest 444 511 36,000  Level FlightAware
11:59AM 61.8270 -50.5330 235° Southwest 442 509 36,000  Level FlightAware
11:59AM 61.7900 -50.6450 235° Southwest 442 509 36,000  Level FlightAware
12:00PM 61.7530 -50.7560 235° Southwest 442 509 36,000  Level FlightAware
12:01PM 61.7160 -50.8670 235° Southwest 442 509 36,000  Level FlightAware
12:01PM 61.6800 -50.9750 235° Southwest 442 509 36,000  Level FlightAware
12:02PM 61.6450 -51.0830 236° Southwest 442 509 36,000  Level FlightAware
12:02PM 61.6110 -51.1850 235° Southwest 442 509 36,000  Level FlightAware
12:03PM 61.5310 -51.4200 235° Southwest 440 506 36,000  Level FlightAware
12:03PM 61.4880 -51.5470 235° Southwest 439 505 36,000  Level FlightAware
12:04PM 61.4460 -51.6680 234° Southwest 439 505 36,000  Level FlightAware
12:05PM 61.4090 -51.7730 234° Southwest 439 505 36,000  Level FlightAware
12:05PM 61.3720 -51.8780 234° Southwest 439 505 36,000  Level FlightAware
12:06PM 61.3380 -51.9770 234° Southwest 439 505 36,000  Level FlightAware
12:07PM 61.2980 -52.0910 234° Southwest 439 505 36,000  Level FlightAware
12:07PM 61.2620 -52.1950 234° Southwest 439 505 36,000  Level FlightAware
12:08PM 61.2250 -52.3000 234° Southwest 439 505 36,000  Level FlightAware
12:08PM 61.1880 -52.4070 234° Southwest 439 505 36,000  Level FlightAware
12:09PM 61.1490 -52.5170 234° Southwest 439 505 36,000  Level FlightAware
12:10PM 67.0270 -48.6900 14° North 426 490 36,000  Level FlightAware
12:11PM 66.9900 -48.8170 233° Southwest 426 490 36,000  Level FlightAware
12:11PM 66.9540 -48.9400 233° Southwest 426 490 36,000  Level FlightAware
12:12PM 66.9140 -49.0730 233° Southwest 426 490 36,000  Level FlightAware
12:13PM 66.8770 -49.2000 233° Southwest 426 490 36,000  Level FlightAware
12:13PM 66.8430 -49.3150 233° Southwest 426 490 36,000  Level FlightAware
12:14PM 66.8060 -49.4380 233° Southwest 426 490 36,000  Level FlightAware
12:14PM 66.7700 -49.5600 233° Southwest 426 490 36,000  Level FlightAware
12:15PM 66.7330 -49.6850 233° Southwest 426 490 36,000  Level FlightAware
12:16PM 66.6970 -49.8070 233° Southwest 426 490 36,000  Level FlightAware
12:16PM 66.6590 -49.9320 233° Southwest 426 490 36,000  Level FlightAware
12:17PM 66.6230 -50.0530 233° Southwest 426 490 36,000  Level FlightAware
12:17PM 66.5860 -50.1780 233° Southwest 426 490 36,000  Level FlightAware
12:18PM 66.5480 -50.3030 233° Southwest 426 490 36,000  Level FlightAware
12:19PM 66.5110 -50.4270 233° Southwest 426 490 36,000  Level FlightAware
12:19PM 66.4750 -50.5480 233° Southwest 426 490 36,000  Level FlightAware
12:22PM 66.2745 -50.9783 221° Southwest  Level Estimated
12:23PM 66.1883 -51.1606 221° Southwest  Level Estimated
12:24PM 66.1018 -51.3416 220° Southwest  Level Estimated
12:25PM 66.0071 -51.5381 220° Southwest  Level Estimated
12:26PM 65.9121 -51.7330 220° Southwest  Level Estimated
12:27PM 65.8169 -51.9265 220° Southwest  Level Estimated
12:28PM 65.7214 -52.1186 220° Southwest  Level Estimated
12:29PM 65.6257 -52.3092 219° Southwest  Level Estimated
12:29PM 59.6500 -56.3000 219° Southwest 430 495 36,000  Level Gander Center
12:30PM 65.5298 -52.4985 219° Southwest  Level Estimated
12:30PM 59.5667 -56.5167 233° Southwest 430 495 36,000  Level Gander Center
12:31PM 65.4337 -52.6863 219° Southwest  Level Estimated
12:31PM 59.4833 -56.6833 225° Southwest 430 495 36,000  Level Gander Center
12:32PM 65.3373 -52.8728 219° Southwest  Level Estimated
12:32PM 59.4167 -56.8667 234° Southwest 440 506 36,000  Level Gander Center
12:33PM 65.2406 -53.0579 219° Southwest  Level Estimated
12:33PM 59.3333 -57.0333 226° Southwest 440 506 36,000  Level Gander Center
12:34PM 65.1438 -53.2417 219° Southwest  Level Estimated
12:34PM 59.2667 -57.2500 239° Southwest 430 495 36,000  Level Gander Center
12:35PM 59.1833 -57.4167 226° Southwest 440 506 36,000  Level Gander Center
12:36PM 59.1000 -57.5833 226° Southwest 440 506 36,000  Level Gander Center
12:37PM 59.0167 -57.7833 231° Southwest 440 506 36,000  Level Gander Center
12:38PM 58.9500 -57.9500 232° Southwest 440 506 36,000  Level Gander Center
12:39PM 58.8667 -58.1167 226° Southwest 440 506 36,000  Level Gander Center
12:40PM 58.7667 -58.3333 228° Southwest 440 506 36,000  Level Gander Center
12:42PM 58.6333 -58.6333 230° Southwest 440 506 36,000  Level Gander Center
12:43PM 58.5500 -58.7833 223° Southwest 440 506 36,000  Level Gander Center
12:44PM 58.4667 -58.9833 232° Southwest 440 506 36,000  Level Gander Center
12:45PM 58.3833 -59.1500 226° Southwest 440 506 36,000  Level Gander Center
12:46PM 58.2833 -59.3500 226° Southwest 450 518 36,000  Level Gander Center
12:47PM 58.2167 -59.5167 233° Southwest 440 506 36,000  Level Gander Center
12:48PM 58.1333 -59.6667 224° Southwest 440 506 36,000  Level Gander Center
12:49PM 58.0500 -59.8667 232° Southwest 450 518 36,000  Level Gander Center
12:50PM 57.9500 -60.0000 215° Southwest 450 518 36,000  Level Gander Center
12:51PM 57.8500 -60.1167 212° Southwest 450 518 36,000  Level Gander Center
12:52PM 57.7333 -60.2500 211° Southwest 450 518 36,000  Level Gander Center
12:53PM 57.6333 -60.3833 216° Southwest 450 518 36,000  Level Gander Center
12:54PM 57.5333 -60.5000 212° Southwest 440 506 36,000  Level Gander Center
12:55PM 57.4333 -60.6333 216° Southwest 450 518 36,000  Level Gander Center
12:56PM 57.3167 -60.7500 208° Southwest 440 506 36,000  Level Gander Center
12:57PM 57.2167 -60.8833 216° Southwest 440 506 36,000  Level Gander Center
12:58PM 57.1167 -61.0000 212° Southwest 450 518 36,000  Level Gander Center
12:59PM 57.0333 -61.1000 213° Southwest 440 506 36,000  Level Gander Center
01:00PM 56.9000 -61.2500 212° Southwest 440 506 36,000  Level Gander Center
01:01PM 56.8167 -61.3500 213° Southwest 440 506 36,000  Level Gander Center
01:02PM 56.6667 -61.5333 214° Southwest 440 506 36,000  Level Gander Center
01:03PM 56.5667 -61.6500 213° Southwest 440 506 36,000  Level Gander Center
01:04PM 56.4667 -61.7333 205° Southwest 440 506 36,000  Level Gander Center
01:05PM 56.3500 -61.8500 209° Southwest 440 506 36,000  Level Gander Center
01:06PM 56.2333 -61.9500 205° Southwest 450 518 36,000  Level Gander Center
01:07PM 56.1333 -62.0333 205° Southwest 440 506 36,000  Level Gander Center
01:08PM 56.0167 -62.1500 209° Southwest 440 506 36,000  Level Gander Center
01:09PM 55.9167 -62.2333 205° Southwest 450 518 36,000  Level Gander Center
01:10PM 55.8000 -62.3500 209° Southwest 450 518 36,000  Level Gander Center
01:11PM 55.7000 -62.4333 205° Southwest 450 518 36,000  Level Gander Center
01:12PM 55.5833 -62.5500 209° Southwest 450 518 36,000  Level Gander Center
01:13PM 55.4833 -62.6333 205° Southwest 440 506 36,000  Level Gander Center
01:14PM 55.3667 -62.7500 210° Southwest 450 518 36,000  Level Gander Center
01:15PM 55.2333 -62.8333 200° South 440 506 36,000  Level Gander Center
01:16PM 55.1333 -62.9500 214° Southwest 440 506 36,000  Level Gander Center
01:17PM 55.0167 -63.0333 202° Southwest 450 518 36,000  Level Gander Center
01:18PM 54.9167 -63.1500 214° Southwest 450 518 36,000  Level Gander Center
01:19PM 54.8000 -63.2167 198° South 450 518 36,000  Level Gander Center
01:20PM 54.7000 -63.3000 206° Southwest 450 518 36,000  Level Gander Center
01:21PM 54.5833 -63.4167 210° Southwest 450 518 36,000  Level Gander Center
01:22PM 54.4667 -63.5000 203° Southwest 450 518 36,000  Level Gander Center
01:23PM 54.3500 -63.6000 207° Southwest 450 518 36,000  Level Gander Center
01:24PM 54.2333 -63.6833 203° Southwest 450 518 36,000  Level Gander Center
01:25PM 54.1167 -63.8000 210° Southwest 450 518 36,000  Level Gander Center
01:26PM 54.0167 -63.8667 201° Southwest 450 518 36,000  Level Gander Center
01:27PM 53.9000 -63.9833 211° Southwest 450 518 36,000  Level Gander Center
01:28PM 53.7833 -64.0833 207° Southwest 450 518 36,000  Level Gander Center
01:29PM 53.6833 -64.1667 206° Southwest 450 518 36,000  Level Gander Center
01:30PM 53.5667 -64.2667 207° Southwest 450 518 36,000  Level Gander Center
01:31PM 53.4500 -64.3500 203° Southwest 450 518 36,000  Level Gander Center
01:32PM 53.3333 -64.4500 207° Southwest 450 518 36,000  Level Gander Center
01:33PM 53.2333 -64.5500 211° Southwest 450 518 36,000  Level Gander Center
01:34PM 53.1167 -64.6500 207° Southwest 450 518 36,000  Level Gander Center
01:35PM 53.0167 -64.7500 211° Southwest 450 518 36,000  Level Gander Center
01:36PM 52.8833 -64.8500 204° Southwest 450 518 36,000  Level Gander Center
01:37PM 52.7833 -64.9333 207° Southwest 450 518 36,000  Level Gander Center
01:38PM 52.6833 -65.0333 211° Southwest 450 518 36,000  Level Gander Center
01:39PM 52.5667 -65.1333 208° Southwest 450 518 36,000  Level Gander Center
01:40PM 52.4667 -65.2333 211° Southwest 450 518 36,000  Level Gander Center
01:41PM 52.3333 -65.3333 205° Southwest 450 518 36,000  Level Gander Center
01:42PM 52.2333 -65.4000 202° Southwest 450 518 36,000  Level Gander Center
01:43PM 52.1333 -65.5000 212° Southwest 450 518 36,000  Level Gander Center
01:44PM 52.0667 -65.5667 212° Southwest 450 518 36,000  Level Moncton Center
01:45PM 51.9500 -65.6667 208° Southwest 450 518 36,000  Level Moncton Center
01:46PM 51.8333 -65.7167 195° South 450 518 36,000  Level Moncton Center
01:47PM 51.7000 -65.7667 193° South 460 529 36,000  Level Moncton Center
01:48PM 51.5667 -65.8167 193° South 460 529 36,000  Level Moncton Center
01:49PM 51.4500 -65.8500 190° South 460 529 36,000  Level Moncton Center
01:50PM 51.3167 -65.9000 193° South 460 529 36,000  Level Moncton Center
01:51PM 51.2000 -65.9500 195° South 460 529 36,000  Level Moncton Center
01:52PM 51.0667 -66.0000 193° South 460 529 36,000  Level Moncton Center
01:53PM 50.9500 -66.0167 185° South 460 529 36,000  Level Moncton Center
01:54PM 50.8167 -66.0667 193° South 460 529 36,000  Level Moncton Center
01:55PM 50.7000 -66.1167 195° South 460 529 36,000  Level Moncton Center
01:56PM 50.5667 -66.1667 193° South 460 529 36,000  Level Moncton Center
01:57PM 50.4500 -66.1833 185° South 460 529 36,000  Level Moncton Center
01:58PM 50.3333 -66.2333 195° South 460 529 36,000  Level Moncton Center
01:59PM 50.2000 -66.2833 193° South 460 529 36,000  Level Moncton Center
02:00PM 50.0833 -66.3500 200° South 460 529 36,000  Level Moncton Center
02:01PM 49.9667 -66.4333 205° Southwest 460 529 36,000  Level Moncton Center
02:02PM 49.8333 -66.4667 189° South 450 518 36,000  Level Moncton Center
02:03PM 49.7167 -66.5500 205° Southwest 450 518 36,000  Level Moncton Center
02:04PM 49.6000 -66.6167 200° South 450 518 36,000  Level Moncton Center
02:05PM 49.4833 -66.6833 200° South 450 518 36,000  Level Moncton Center
02:06PM 49.3667 -66.7667 205° Southwest 450 518 36,000  Level Moncton Center
02:07PM 49.2500 -66.8000 191° South 450 518 36,000  Level Moncton Center
02:08PM 49.1167 -66.8833 202° Southwest 450 518 36,000  Level Moncton Center
02:09PM 49.0167 -66.9500 204° Southwest 450 518 36,000  Level Moncton Center
02:10PM 48.9000 -67.0000 196° South 450 518 36,000  Level Moncton Center
02:11PM 48.7667 -67.0667 198° South 450 518 36,000  Level Moncton Center
02:12PM 48.6500 -67.1333 201° Southwest 450 518 36,000  Level Moncton Center
02:17PM 47.9620 -67.4990 201° Southwest 457 526 36,000  Level FlightAware
02:18PM 47.9030 -67.5290 199° South 457 526 36,000  Level FlightAware
02:19PM 47.9000 -67.5310 204° Southwest 457 526 36,000  Level FlightAware
02:22PM 47.7370 -67.6140 199° South 455 524 36,000  Level FlightAware
02:22PM 47.6740 -67.6440 198° South 455 524 36,000  Level FlightAware
02:23PM 47.3270 -67.8210 199° South 451 519 36,000  Level FlightAware
02:24PM 47.2160 -67.8760 199° South 452 520 36,000  Level FlightAware
02:24PM 47.2970 -67.8360 19° North 451 519 36,000  Level FlightAware
02:25PM 47.0560 -67.9560 199° South 450 518 36,000  Level FlightAware
02:26PM 46.9900 -67.9870 198° South 450 518 36,000  Level FlightAware
02:26PM 46.9140 -68.0260 199° South 449 517 36,000  Level FlightAware
02:27PM 46.8280 -68.0680 198° South 451 519 36,000  Level FlightAware
02:28PM 46.7620 -68.1010 199° South 449 517 36,000  Level FlightAware
02:28PM 46.6920 -68.1310 196° South 451 519 36,000  Level FlightAware
02:29PM 46.6220 -68.1590 195° South 452 520 36,000  Level FlightAware
02:29PM 46.5510 -68.1880 196° South 451 519 36,000  Level FlightAware
02:30PM 46.4930 -68.2120 196° South 451 519 36,000  Level FlightAware
02:30PM 46.4090 -68.2460 196° South 451 519 36,000  Level FlightAware
02:31PM 46.3590 -68.2670 196° South 449 517 36,000  Level FlightAware
02:32PM 46.2760 -68.3040 197° South 441 507 36,000  Level FlightAware
02:32PM 46.2160 -68.3560 211° Southwest 430 495 36,000  Level FlightAware
02:33PM 46.1560 -68.4100 212° Southwest 430 495 36,000  Level FlightAware
02:33PM 46.0920 -68.4680 212° Southwest 423 487 36,000  Level FlightAware
02:34PM 46.0400 -68.5150 212° Southwest 422 486 36,000  Level FlightAware
02:34PM 45.9830 -68.5660 212° Southwest 420 483 36,000  Level FlightAware
02:35PM 45.9270 -68.6160 212° Southwest 418 481 36,000  Level FlightAware
02:36PM 45.8600 -68.6760 212° Southwest 413 475 36,000  Level FlightAware
02:36PM 45.8120 -68.7180 211° Southwest 414 476 36,000  Level FlightAware
02:37PM 45.7470 -68.7760 212° Southwest 418 481 36,000  Level FlightAware
02:37PM 45.7060 -68.8130 212° Southwest 418 481 36,000  Level FlightAware
02:38PM 45.6480 -68.8630 211° Southwest 419 482 36,000  Level FlightAware
02:38PM 45.5910 -68.9140 212° Southwest 419 482 36,000  Level FlightAware
02:39PM 45.5340 -68.9640 212° Southwest 417 480 36,000  Level FlightAware
02:40PM 45.4760 -69.0150 212° Southwest 414 476 36,000  Level FlightAware
02:40PM 45.4200 -69.0640 212° Southwest 412 474 36,000  Level FlightAware
02:41PM 45.3710 -69.1070 212° Southwest 409 471 36,000  Level FlightAware
02:41PM 45.3080 -69.1620 212° Southwest 404 465 36,000  Level FlightAware
02:42PM 45.2460 -69.2160 212° Southwest 403 464 36,000  Level FlightAware
02:43PM 45.1810 -69.2720 211° Southwest 403 464 36,000  Level FlightAware
02:43PM 45.1270 -69.3190 212° Southwest 403 464 36,000  Level FlightAware
02:44PM 45.0700 -69.3680 211° Southwest 406 467 36,000  Level FlightAware
02:44PM 45.0220 -69.4090 211° Southwest 408 470 36,000  Level FlightAware
02:45PM 44.9650 -69.4580 211° Southwest 408 470 36,000  Level FlightAware
02:46PM 44.9020 -69.5120 211° Southwest 408 470 36,000  Level FlightAware
02:46PM 44.8600 -69.5480 211° Southwest 408 470 36,000  Level FlightAware
02:47PM 44.7890 -69.6080 211° Southwest 409 471 36,000  Level FlightAware
02:47PM 44.7260 -69.6620 211° Southwest 407 468 36,000  Level FlightAware
02:48PM 44.6650 -69.7140 211° Southwest 407 468 36,000  Level FlightAware
02:49PM 44.6150 -69.7560 211° Southwest 407 468 36,000  Level FlightAware
02:49PM 44.5580 -69.8040 211° Southwest 409 471 36,000  Level FlightAware
02:50PM 44.4980 -69.8550 211° Southwest 411 473 36,000  Level FlightAware
02:50PM 44.4370 -69.9050 210° Southwest 413 475 36,000  Level FlightAware
02:51PM 44.3860 -69.9490 212° Southwest 414 476 36,000  Level FlightAware
02:52PM 44.3220 -70.0010 210° Southwest 413 475 36,000  Level FlightAware
02:52PM 44.2700 -70.0450 211° Southwest 413 475 36,000  Level FlightAware
02:53PM 44.2130 -70.0930 211° Southwest 412 474 36,000  Level FlightAware
02:53PM 44.1480 -70.1470 211° Southwest 411 473 36,000  Level FlightAware
02:54PM 44.0970 -70.1890 211° Southwest 410 472 36,000  Level FlightAware
02:54PM 44.0410 -70.2350 211° Southwest 409 471 36,000  Level FlightAware
02:55PM 43.9790 -70.2860 211° Southwest 410 472 36,000  Level FlightAware
02:56PM 43.9240 -70.3310 211° Southwest 412 474 36,000  Level FlightAware
02:56PM 43.8650 -70.3790 210° Southwest 412 474 36,000  Level FlightAware
02:57PM 43.8130 -70.4220 211° Southwest 413 475 36,000  Level FlightAware
02:57PM 43.7540 -70.4710 211° Southwest 418 481 36,000  Level FlightAware
02:58PM 43.6920 -70.5210 210° Southwest 420 483 36,000  Level FlightAware
02:59PM 43.6370 -70.5660 211° Southwest 421 484 36,000  Level FlightAware
02:59PM 43.5730 -70.6180 210° Southwest 423 487 36,000  Level FlightAware
03:00PM 43.5180 -70.6620 210° Southwest 423 487 36,000  Level FlightAware
03:00PM 43.4640 -70.7060 211° Southwest 423 487 36,000  Level FlightAware
03:01PM 43.3990 -70.7580 210° Southwest 423 487 36,000  Level FlightAware
03:01PM 43.3400 -70.8060 211° Southwest 423 487 36,000  Level FlightAware
03:02PM 43.2790 -70.8550 210° Southwest 425 489 36,000  Level FlightAware
03:03PM 43.2240 -70.8980 210° Southwest 426 490 36,000  Level FlightAware
03:03PM 43.1590 -70.9500 210° Southwest 427 491 36,000  Level FlightAware
03:04PM 43.1010 -70.9960 210° Southwest 425 489 36,000  Level FlightAware
03:04PM 43.0460 -71.0400 210° Southwest 423 487 36,000  Level FlightAware
03:05PM 42.9820 -71.0910 210° Southwest 422 486 36,000  Level FlightAware
03:06PM 42.9280 -71.1340 210° Southwest 422 486 36,000  Level FlightAware
03:06PM 42.8640 -71.1840 210° Southwest 422 486 36,000  Level FlightAware
03:07PM 42.8070 -71.2290 210° Southwest 417 480 36,000  Level FlightAware
03:07PM 42.7460 -71.2770 210° Southwest 415 478 36,000  Level FlightAware
03:08PM 42.6860 -71.3240 210° Southwest 414 476 36,000  Level FlightAware
03:08PM 42.6330 -71.3650 210° Southwest 413 475 36,000  Level FlightAware
03:09PM 42.5740 -71.4110 210° Southwest 413 475 36,000  Level FlightAware
03:10PM 42.5150 -71.4580 210° Southwest 413 475 36,000  Level FlightAware
03:10PM 42.4610 -71.4990 209° Southwest 413 475 36,000  Level FlightAware
03:11PM 42.4080 -71.5400 210° Southwest 413 475 36,000  Level FlightAware
03:11PM 42.3420 -71.5920 210° Southwest 415 478 36,000  Level FlightAware
03:12PM 42.2920 -71.6300 209° Southwest 416 479 36,000  Level FlightAware
03:13PM 42.2260 -71.6810 210° Southwest 417 480 36,000  Level FlightAware
03:13PM 42.1650 -71.7280 210° Southwest 417 480 36,000  Level FlightAware
03:14PM 42.1110 -71.7700 210° Southwest 417 480 36,000  Level FlightAware
03:14PM 42.0500 -71.8160 209° Southwest 417 480 36,000  Level FlightAware
03:15PM 41.9980 -71.8570 210° Southwest 414 476 36,000  Level FlightAware
03:15PM 41.9410 -71.9130 216° Southwest 411 473 36,000  Level FlightAware
03:16PM 41.8890 -71.9650 217° Southwest 404 465 36,000  Level FlightAware
03:17PM 41.8370 -72.0150 216° Southwest 405 466 36,000  Level FlightAware
03:17PM 41.7680 -72.0840 217° Southwest 414 476 36,000  Level FlightAware
03:18PM 41.7210 -72.1290 216° Southwest 407 468 36,000  Level FlightAware
03:18PM 41.6670 -72.1820 216° Southwest 413 475 36,000  Level FlightAware
03:19PM 41.6110 -72.2350 215° Southwest 413 475 36,000  Level FlightAware
03:20PM 41.5570 -72.2890 217° Southwest 413 475 36,000  Level FlightAware
03:20PM 41.5080 -72.3360 216° Southwest 415 478 36,000  Level FlightAware
03:21PM 41.4310 -72.4100 216° Southwest 416 479 36,000  Level FlightAware
03:22PM 41.3780 -72.4610 216° Southwest 415 478 36,000  Level FlightAware
03:22PM 41.3160 -72.5210 216° Southwest 415 478 36,000  Level FlightAware
03:23PM 41.2540 -72.5800 216° Southwest 414 476 36,000  Level FlightAware
03:23PM 41.2030 -72.6280 215° Southwest 414 476 36,000  Level FlightAware
03:24PM 41.1480 -72.6800 215° Southwest 413 475 36,000  Level FlightAware
03:25PM 41.0960 -72.7300 216° Southwest 412 474 36,000  Level FlightAware
03:25PM 41.0440 -72.7800 216° Southwest 412 474 36,000  Level FlightAware
03:25PM 41.0127 -72.8093 215° Southwest 413 475 36,000  Level FlightAware ADS-B
03:26PM 40.9400 -72.8781 216° Southwest 414 476 36,000  Level FlightAware ADS-B
03:27PM 40.8859 -72.9292 216° Southwest 415 478 36,000  Level FlightAware ADS-B
03:27PM 40.8362 -72.9759 215° Southwest 415 478 36,000  Level FlightAware ADS-B
03:28PM 40.7820 -73.0270 216° Southwest 415 478 36,000  Level FlightAware ADS-B
03:28PM 40.7276 -73.0780 215° Southwest 417 480 36,000  Level FlightAware ADS-B
03:29PM 40.6804 -73.1222 215° Southwest 417 480 36,000  Level FlightAware ADS-B
03:30PM 40.6325 -73.1671 215° Southwest 417 480 36,000  Level FlightAware ADS-B
03:30PM 40.5848 -73.2115 215° Southwest 418 481 36,000  Level FlightAware ADS-B
03:31PM 40.5233 -73.2688 215° Southwest 418 481 36,000  Level FlightAware ADS-B
03:31PM 40.4758 -73.3129 215° Southwest 419 482 36,000  Level FlightAware ADS-B
03:32PM 40.4046 -73.3788 215° Southwest 419 482 36,000  Level FlightAware ADS-B
03:32PM 40.3567 -73.4232 215° Southwest 419 482 36,000  Level FlightAware ADS-B
03:33PM 40.2970 -73.4783 215° Southwest 418 481 36,000  Level FlightAware ADS-B
03:34PM 40.2391 -73.5317 215° Southwest 418 481 36,000  Level FlightAware ADS-B
03:34PM 40.1781 -73.5851 214° Southwest 419 482 36,000  Level FlightAware ADS-B
03:35PM 40.1074 -73.6405 211° Southwest 421 484 36,000  Level FlightAware ADS-B
03:36PM 40.0484 -73.6876 211° Southwest 421 484 36,000  Level FlightAware ADS-B
03:36PM 39.9926 -73.7324 212° Southwest 421 484 36,000  Level FlightAware ADS-B
03:37PM 39.9421 -73.7730 212° Southwest 421 484 36,000  Level FlightAware ADS-B
03:37PM 39.8901 -73.8147 212° Southwest 422 486 36,000  Level FlightAware ADS-B
03:38PM 39.8333 -73.8601 212° Southwest 423 487 36,000  Level FlightAware ADS-B
03:38PM 39.7724 -73.9087 212° Southwest 425 489 36,000  Level FlightAware ADS-B
03:39PM 39.7209 -73.9497 211° Southwest 425 489 36,000  Level FlightAware ADS-B
03:39PM 39.6706 -73.9897 211° Southwest 425 489 36,000  Level FlightAware ADS-B
03:40PM 39.6181 -74.0314 211° Southwest 425 489 36,000  Level FlightAware ADS-B
03:40PM 39.5642 -74.0741 211° Southwest 425 489 36,000  Level FlightAware ADS-B
03:41PM 39.5102 -74.1168 211° Southwest 426 490 36,000  Level FlightAware ADS-B
03:41PM 39.4574 -74.1585 211° Southwest 428 493 36,000  Level FlightAware ADS-B
03:42PM 39.4041 -74.2005 211° Southwest 428 493 36,000  Level FlightAware ADS-B
03:43PM 39.3410 -74.2500 211° Southwest 427 491 36,000  Level FlightAware ADS-B
03:43PM 39.2900 -74.2901 211° Southwest 427 491 36,000  Level FlightAware ADS-B
03:44PM 39.2367 -74.3318 211° Southwest 427 491 36,000  Level FlightAware ADS-B
03:44PM 39.1670 -74.3860 211° Southwest 429 494 36,000  Level FlightAware
03:45PM 39.1319 -74.4138 212° Southwest 429 494 36,000  Level FlightAware ADS-B
03:45PM 39.0800 -74.4542 211° Southwest 429 494 36,000  Level FlightAware ADS-B
03:46PM 39.0158 -74.5041 211° Southwest 430 495 36,000  Level FlightAware ADS-B
03:47PM 38.9483 -74.5565 211° Southwest 430 495 36,000  Level FlightAware ADS-B
03:47PM 38.8939 -74.5986 211° Southwest 430 495 36,000  Level FlightAware ADS-B
03:48PM 38.9070 -74.5880 32° Northeast 430 495 36,000  Level FlightAware
03:48PM 38.7782 -74.6879 211° Southwest 429 494 36,000  Level FlightAware ADS-B
03:49PM 38.7256 -74.7285 211° Southwest 430 495 36,000  Level FlightAware ADS-B
03:49PM 38.6685 -74.7723 211° Southwest 430 495 36,000  Level FlightAware ADS-B
03:50PM 38.6047 -74.8213 211° Southwest 429 494 36,000  Level FlightAware ADS-B
03:50PM 38.5452 -74.8668 211° Southwest 429 494 36,000  Level FlightAware ADS-B
03:51PM 38.4896 -74.9093 211° Southwest 430 495 36,000  Level FlightAware ADS-B
03:52PM 38.4380 -74.9490 211° Southwest 430 495 36,000  Level FlightAware
03:52PM 38.4109 -74.9693 210° Southwest 431 496 36,000  Level FlightAware ADS-B
03:52PM 38.3595 -75.0085 211° Southwest 431 496 36,000  Level FlightAware ADS-B
03:53PM 38.3074 -75.0480 211° Southwest 434 499 36,000  Level FlightAware ADS-B
03:53PM 38.2532 -75.0893 211° Southwest 433 498 36,000  Level FlightAware ADS-B
03:54PM 38.1990 -75.1300 211° Southwest 433 498 36,000  Level FlightAware
03:54PM 38.1651 -75.1558 211° Southwest 433 498 36,000  Level FlightAware ADS-B
03:55PM 38.1116 -75.1962 211° Southwest 432 497 36,000  Level FlightAware ADS-B
03:55PM 38.0558 -75.2382 211° Southwest 433 498 36,000  Level FlightAware ADS-B
03:56PM 37.9985 -75.2814 211° Southwest 434 499 36,000  Level FlightAware ADS-B
03:57PM 37.9090 -75.3490 211° Southwest 429 494 36,000  Level FlightAware
03:57PM 37.8420 -75.3990 211° Southwest 430 495 36,000  Level FlightAware
03:58PM 37.7810 -75.4440 210° Southwest 430 495 36,000  Level FlightAware
03:59PM 37.7150 -75.4930 210° Southwest 430 495 36,000  Level FlightAware
03:59PM 37.6924 -75.5096 210° Southwest 438 504 36,000  Level FlightAware ADS-B
03:59PM 37.6354 -75.5402 203° Southwest 441 507 36,000  Level FlightAware ADS-B
04:00PM 37.5782 -75.5699 202° Southwest 441 507 36,000  Level FlightAware ADS-B
04:00PM 37.5040 -75.6090 203° Southwest 433 498 36,000  Level FlightAware
04:01PM 37.4470 -75.6380 202° Southwest 433 498 36,000  Level FlightAware
04:02PM 37.3780 -75.6740 203° Southwest 433 498 36,000  Level FlightAware
04:02PM 37.3090 -75.7110 203° Southwest 439 505 36,000  Level FlightAware
04:03PM 37.2532 -75.7396 202° Southwest 440 506 36,000  Level FlightAware ADS-B
04:03PM 37.1867 -75.7742 203° Southwest 440 506 36,000  Level FlightAware ADS-B
04:04PM 37.1253 -75.8061 203° Southwest 441 507 36,000  Level FlightAware ADS-B
04:04PM 37.0589 -75.8406 203° Southwest 442 509 36,000  Level FlightAware ADS-B
04:05PM 36.9879 -75.8773 202° Southwest 443 510 36,000  Level FlightAware ADS-B
04:06PM 36.9238 -75.9104 202° Southwest 443 510 36,000  Level FlightAware ADS-B
04:06PM 36.8638 -75.9414 202° Southwest 442 509 36,000  Level FlightAware ADS-B
04:07PM 36.7931 -75.9778 202° Southwest 443 510 36,000  Level FlightAware ADS-B
04:07PM 36.7190 -76.0160 202° Southwest 434 499 36,000  Level FlightAware
04:08PM 36.6220 -76.0660 202° Southwest 435 501 36,000  Level FlightAware
04:09PM 36.5560 -76.1000 202° Southwest 433 498 36,000  Level FlightAware
04:09PM 36.4930 -76.1310 202° Southwest 433 498 36,000  Level FlightAware
04:10PM 36.3880 -76.1850 202° Southwest 435 501 36,000  Level FlightAware
04:11PM 36.3220 -76.2180 202° Southwest 435 501 36,000  Level FlightAware
04:11PM 36.2560 -76.2520 203° Southwest 437 503 36,000  Level FlightAware
04:12PM 36.1570 -76.3020 202° Southwest 437 503 36,000  Level FlightAware
04:13PM 36.0930 -76.3340 202° Southwest 438 504 36,000  Level FlightAware
04:14PM 36.0070 -76.3780 202° Southwest 438 504 36,000  Level FlightAware
04:14PM 35.9380 -76.4120 202° Southwest 437 503 36,000  Level FlightAware
04:15PM 35.8630 -76.4500 202° Southwest 437 503 36,000  Level FlightAware
04:16PM 35.8060 -76.4780 202° Southwest 437 503 36,000  Level FlightAware
04:17PM 35.6597 -76.5481 202° Southwest 441 507 36,000  Level Washington Center
04:18PM 35.5444 -76.6081 203° Southwest 441 507 36,000  Level Washington Center
04:19PM 35.4294 -76.6628 201° Southwest 441 507 36,000  Level Washington Center
04:20PM 35.3244 -76.7172 203° Southwest 446 513 36,000  Level Washington Center
04:21PM 35.2092 -76.7717 201° Southwest 446 513 36,000  Level Washington Center
04:22PM 35.0833 -76.8383 203° Southwest 446 513 36,000  Level Washington Center
04:23PM 34.9828 -76.8875 202° Southwest 446 513 36,000  Level Washington Center
04:24PM 34.8672 -76.9439 202° Southwest 446 513 36,000  Level Washington Center
04:25PM 34.7519 -77.0000 202° Southwest 446 513 36,000  Level Washington Center
04:26PM 34.6364 -77.0561 202° Southwest 446 513 36,000  Level Washington Center
04:27PM 34.5211 -77.1119 202° Southwest 446 513 36,000  Level Washington Center
04:32PM 33.9210 -77.3980 202° Southwest 454 522 36,000  Level FlightAware
04:33PM 33.8210 -77.4450 201° Southwest 455 524 36,000  Level FlightAware
04:33PM 33.7170 -77.4950 202° Southwest 456 525 36,000  Level FlightAware
04:34PM 33.6440 -77.5290 201° Southwest 457 526 36,000  Level FlightAware
04:35PM 33.5870 -77.5560 202° Southwest 456 525 36,000  Level FlightAware
04:36PM 33.4528 -77.6153 202° Southwest 464 534 36,000  Level Jacksonville Center
04:41PM 32.7760 -77.9350 202° Southwest 457 526 36,000  Level FlightAware
04:43PM 32.6850 -77.9770 201° Southwest 456 525 36,000  Level FlightAware
04:43PM 32.5310 -78.0480 201° Southwest 455 524 36,000  Level FlightAware
04:44PM 32.4600 -78.0810 201° Southwest 454 522 36,000  Level FlightAware
04:45PM 32.4030 -78.1070 201° Southwest 454 522 36,000  Level FlightAware
04:45PM 32.4800 -78.0720 21° North 454 522 36,000  Level FlightAware
04:46PM 32.2310 -78.1860 201° Southwest 456 525 36,000  Level FlightAware
04:47PM 32.1620 -78.2170 201° Southwest 455 524 36,000  Level FlightAware
04:47PM 32.0780 -78.2560 201° Southwest 457 526 36,000  Level FlightAware
04:48PM 31.9780 -78.3010 201° Southwest 457 526 36,000  Level FlightAware
04:49PM 31.9130 -78.3310 201° Southwest 457 526 36,000  Level FlightAware
04:49PM 31.8510 -78.3590 201° Southwest 457 526 36,000  Level FlightAware
04:50PM 31.7900 -78.3860 201° Southwest 457 526 36,000  Level FlightAware
04:51PM 31.7300 -78.4130 201° Southwest 457 526 36,000  Level FlightAware
04:51PM 31.6700 -78.4400 201° Southwest 457 526 36,000  Level FlightAware
04:53PM 31.4386 -78.5439 201° Southwest 459 528 36,000  Level Jacksonville Center
04:54PM 31.3214 -78.5981 202° Southwest 469 540 36,000  Level Jacksonville Center
04:55PM 31.2022 -78.6522 201° Southwest 464 534 36,000  Level Jacksonville Center
04:56PM 31.0789 -78.7086 201° Southwest 464 534 36,000  Level Jacksonville Center
04:57PM 30.9717 -78.7544 200° South 464 534 36,000  Level Jacksonville Center
04:58PM 30.8544 -78.8081 201° Southwest 464 534 36,000  Level Jacksonville Center
04:59PM 30.7308 -78.8617 200° South 472 543 36,000  Level Jacksonville Center
05:00PM 30.5528 -78.9386 200° South 458 527 36,000  Level Miami Center
05:01PM 30.4353 -78.9942 202° Southwest 458 527 36,000  Level Miami Center
05:02PM 30.3136 -79.0419 199° South 468 539 36,000  Level Miami Center
05:03PM 30.1878 -79.0875 197° South 474 545 36,000  Level Miami Center
05:04PM 30.0600 -79.1375 199° South 474 545 36,000  Level Miami Center
05:05PM 29.9278 -79.1944 200° South 467 537 36,000  Level Miami Center
05:06PM 29.8039 -79.2422 199° South 473 544 36,000  Level Miami Center
05:07PM 29.6778 -79.2919 199° South 473 544 36,000  Level Miami Center
05:08PM 29.5583 -79.3392 199° South 468 539 36,000  Level Miami Center
05:09PM 29.4303 -79.3839 197° South 468 539 36,000  Level Miami Center
05:15PM 28.7270 -79.6440 197° South 471 542 36,000  Level FlightAware
05:16PM 28.6250 -79.6900 202° Southwest 482 555 36,000  Level FlightAware
05:16PM 28.5600 -79.7320 210° Southwest 482 555 36,000  Level FlightAware
05:17PM 28.4780 -79.7850 210° Southwest 483 556 36,000  Level FlightAware
05:17PM 28.4000 -79.8350 209° Southwest 484 557 36,000  Level FlightAware
05:18PM 28.3110 -79.8910 209° Southwest 485 558 36,000  Level FlightAware
05:19PM 28.2430 -79.9340 209° Southwest 485 558 36,000  Level FlightAware
05:20PM 28.1300 -80.0060 209° Southwest 485 558 36,000  Level FlightAware
05:20PM 28.0670 -80.0460 209° Southwest 477 549 36,000  Level FlightAware
05:21PM 27.9980 -80.0900 209° Southwest 477 549 36,000  Level FlightAware
05:21PM 27.9340 -80.1300 209° Southwest 477 549 36,000  Level FlightAware
05:22PM 27.8610 -80.1760 209° Southwest 477 549 36,000  Level FlightAware
05:23PM 27.7960 -80.2170 209° Southwest 477 549 36,000  Level FlightAware
05:23PM 27.7340 -80.2560 209° Southwest 477 549 36,000  Level FlightAware
05:24PM 27.6170 -80.3300 209° Southwest 478 550 36,000  Level FlightAware
05:25PM 27.5390 -80.3790 209° Southwest 479 551 36,000  Level FlightAware
05:25PM 27.4580 -80.4300 209° Southwest 477 549 36,000  Level FlightAware
05:26PM 27.3930 -80.4700 209° Southwest 477 549 36,000  Level FlightAware
05:27PM 27.3210 -80.5150 209° Southwest 478 550 36,000  Level FlightAware
05:27PM 27.2610 -80.5520 209° Southwest 478 550 36,000  Level FlightAware
05:28PM 27.1830 -80.6010 209° Southwest 479 551 36,000  Level FlightAware
05:28PM 27.1140 -80.6430 208° Southwest 479 551 36,000  Level FlightAware
05:29PM 27.0580 -80.6780 209° Southwest 479 551 36,000  Level FlightAware
05:30PM 26.9720 -80.7320 209° Southwest 487 560 36,000  Level FlightAware
05:30PM 26.9170 -80.7660 209° Southwest 479 551 36,000  Level FlightAware
05:31PM 26.8480 -80.8090 209° Southwest 477 549 36,000  Level FlightAware
05:31PM 26.7810 -80.8500 209° Southwest 476 548 36,000  Level FlightAware
05:32PM 26.6910 -80.9050 209° Southwest 477 549 36,000  Level FlightAware
05:33PM 26.6230 -80.9470 209° Southwest 476 548 36,000  Level FlightAware
05:33PM 26.5540 -80.9900 209° Southwest 482 555 36,000  Level FlightAware
05:34PM 26.4860 -81.0310 208° Southwest 475 547 36,000  Level FlightAware
05:34PM 26.4170 -81.0730 209° Southwest 477 549 36,000  Level FlightAware
05:35PM 26.3480 -81.1150 209° Southwest 478 550 36,000  Level FlightAware
05:35PM 26.2790 -81.1580 209° Southwest 476 548 36,000  Level FlightAware
05:36PM 26.2100 -81.2000 209° Southwest 478 550 36,000  Level FlightAware
05:37PM 26.1410 -81.2420 209° Southwest 479 551 36,000  Level FlightAware
05:37PM 26.0620 -81.2900 209° Southwest 479 551 36,000  Level FlightAware
05:38PM 25.9930 -81.3320 209° Southwest 477 549 36,000  Level FlightAware
05:39PM 25.9140 -81.3800 209° Southwest 477 549 36,000  Level FlightAware
05:39PM 25.8590 -81.4130 208° Southwest 475 547 36,000  Level FlightAware
05:40PM 25.7880 -81.4560 209° Southwest 479 551 36,000  Level FlightAware
05:40PM 25.7180 -81.4980 208° Southwest 479 551 36,000  Level FlightAware
05:41PM 25.6400 -81.5450 209° Southwest 475 547 36,000  Level FlightAware
05:41PM 25.5840 -81.5790 209° Southwest 476 548 36,000  Level FlightAware
05:42PM 25.4960 -81.6320 209° Southwest 476 548 36,000  Level FlightAware
05:43PM 25.4280 -81.6730 209° Southwest 474 545 36,000  Level FlightAware
05:43PM 25.3590 -81.7140 208° Southwest 480 552 36,000 -480 Level FlightAware
05:44PM 25.2910 -81.7550 209° Southwest 463 533 35,500 -1,080 Descending FlightAware
05:44PM 25.2260 -81.7940 208° Southwest 458 527 34,800 -1,200 Descending FlightAware
05:45PM 25.1480 -81.8400 208° Southwest 477 549 34,000 -1,200 Descending FlightAware
05:46PM 25.0890 -81.8760 209° Southwest 477 549 33,400 -1,200 Descending FlightAware
05:46PM 25.0210 -81.9160 208° Southwest 482 555 32,700 -1,200 Descending FlightAware
05:47PM 24.9510 -81.9580 209° Southwest 480 552 32,000 -1,200 Descending FlightAware
05:47PM 24.8820 -81.9990 208° Southwest 475 547 31,300 -1,200 Descending FlightAware
05:48PM 24.8030 -82.0460 208° Southwest 474 545 30,500 -1,200 Descending FlightAware
05:49PM 24.7460 -82.0790 208° Southwest 463 533 29,900 -1,200 Descending FlightAware
05:49PM 24.6790 -82.1190 208° Southwest 457 526 29,200 -1,140 Descending FlightAware
05:50PM 24.6020 -82.1650 209° Southwest 440 506 28,400 -1,080 Descending FlightAware
05:50PM 24.5380 -82.2030 208° Southwest 422 486 27,800 -1,080 Descending FlightAware
05:51PM 24.4730 -82.2410 208° Southwest 419 482 27,100 -1,140 Descending FlightAware
05:52PM 24.4150 -82.2750 208° Southwest 418 481 26,400 -1,140 Descending FlightAware
05:52PM 24.3400 -82.3190 208° Southwest 406 467 25,700 -1,140 Descending FlightAware
05:53PM 24.2750 -82.3580 209° Southwest 407 468 24,900 -1,140 Descending FlightAware
05:53PM 24.2250 -82.3870 208° Southwest 405 466 24,400 -480 Descending FlightAware
05:54PM 24.1730 -82.4180 209° Southwest 405 466 24,400 -840 Level FlightAware
05:55PM 24.0790 -82.4720 208° Southwest 406 467 23,200 -840 Descending FlightAware
05:56PM 24.0290 -82.5020 209° Southwest 406 467 23,200  Level FlightAware
05:56PM 23.9760 -82.5320 207° Southwest 406 467 23,200  Level FlightAware
05:57PM 23.9260 -82.5620 209° Southwest 406 467 23,200  Level FlightAware
05:57PM 23.8750 -82.5910 207° Southwest 406 467 23,200  Level FlightAware
05:58PM 23.8240 -82.6210 208° Southwest 406 467 23,200  Level FlightAware
06:03PM 23.2798 -82.4826 175° South  Level Estimated
06:04PM 23.1593 -82.4520 180° South  Level Estimated
06:05PM 23.0388 -82.4216 180° South  Level Estimated
06:06PM 22.9891 -82.4091 180° South  Level Estimated
06:07PM 22.9891 -82.4091 180° South  Level Estimated
06:08PM 22.9891 -82.4091 180° South  Level Estimated
06:09PM 22.9891 -82.4091 180° South  Level Estimated
06:10PM 22.9891 -82.4091 180° South  Level Estimated
06:11PM 22.9891 -82.4091 180° South  Level Estimated
06:12PM 22.9891 -82.4091 180° South  Level Estimated
06:13PM 22.9891 -82.4091 180° South  Level Estimated
06:14PM 22.9891 -82.4091 180° South  Level Estimated
06:15PM 22.9891 -82.4091 180° South  Level Estimated
06:16PM 22.9891 -82.4091 180° South  Level Estimated
06:17PM 22.9891 -82.4091 180° South  Level Estimated
06:18PM 22.9891 -82.4091 180° South  Level Estimated
06:19PM 22.9891 -82.4091 180° South  Level Estimated
06:20PM 22.9891 -82.4091 180° South  Level Estimated
06:21PM 22.9891 -82.4091 180° South  Level Estimated
06:22PM 22.9891 -82.4091 180° South  Level Estimated
06:23PM 22.9891 -82.4091 180° South  Level Estimated
06:24PM 22.9891 -82.4091 180° South  Level Estimated
06:25PM 22.9891 -82.4091 180° South  Level Estimated
06:26PM 22.9891 -82.4091 180° South  Level Estimated
06:27PM 22.9891 -82.4091 180° South  Level Estimated